Time;durP1;ratioP1;P1;durP2;ratioP2;P2;SDS_P1;SDS_P2;PMS_P1;PMS_P2;Temp;Humidity;BMP_temperature;BMP_pressure;BME280_temperature;BME280_humidity;BME280_pressure;Samples;Min_cycle;Max_cycle;Signal;HPM_P1;HPM_P2
2021/09/21 00:02:31;;;;;;;13.05;4.93;;;;;;;;;;10567711;28;20047;-70
2021/09/21 00:07:34;;;;;;;11.10;5.03;;;;;;;;;;10558197;28;20058;-72
2021/09/21 00:12:38;;;;;;;11.52;4.90;;;;;;;;;;10566208;28;20468;-71
2021/09/21 00:17:42;;;;;;;12.30;4.93;;;;;;;;;;10567556;28;20364;-71
2021/09/21 00:22:45;;;;;;;9.00;3.83;;;;;;;;;;10565376;28;20072;-72
2021/09/21 00:27:49;;;;;;;8.27;2.77;;;;;;;;;;10563364;28;20122;-71
2021/09/21 00:33:01;;;;;;;7.78;3.83;;;;;;;;;;10559868;28;20048;-72
2021/09/21 00:38:04;;;;;;;9.40;4.00;;;;;;;;;;10564981;28;20044;-71
2021/09/21 00:43:08;;;;;;;12.88;5.10;;;;;;;;;;10563020;28;20044;-72
2021/09/21 00:48:11;;;;;;;12.55;4.85;;;;;;;;;;10565085;28;20136;-71
2021/09/21 00:53:14;;;;;;;8.57;4.38;;;;;;;;;;10564647;28;20349;-72
2021/09/21 00:58:19;;;;;;;12.23;4.93;;;;;;;;;;10565143;28;20948;-72
2021/09/21 01:03:22;;;;;;;8.30;3.47;;;;;;;;;;10567720;28;20409;-73
2021/09/21 01:08:27;;;;;;;10.70;4.25;;;;;;;;;;10567896;28;20070;-71
2021/09/21 01:13:33;;;;;;;10.75;4.80;;;;;;;;;;10562604;28;20134;-71
2021/09/21 01:18:54;;;;;;;11.45;4.70;;;;;;;;;;10569728;28;20043;-71
2021/09/21 01:24:18;;;;;;;12.40;4.57;;;;;;;;;;10562304;28;20492;-71
2021/09/21 01:29:23;;;;;;;11.68;4.78;;;;;;;;;;10563946;28;20047;-72
2021/09/21 01:34:27;;;;;;;11.43;4.45;;;;;;;;;;10565318;27;20126;-72
2021/09/21 01:39:31;;;;;;;9.48;4.05;;;;;;;;;;10569254;27;20523;-74
2021/09/21 01:44:34;;;;;;;9.55;4.22;;;;;;;;;;10574814;28;20058;-71
2021/09/21 01:49:43;;;;;;;11.98;4.00;;;;;;;;;;10573700;28;20452;-73
2021/09/21 01:55:05;;;;;;;9.75;4.70;;;;;;;;;;10573204;28;20101;-71
2021/09/21 02:00:09;;;;;;;9.18;4.55;;;;;;;;;;10574887;28;20097;-72
2021/09/21 02:05:12;;;;;;;10.77;4.55;;;;;;;;;;10569369;28;20042;-72
2021/09/21 02:10:16;;;;;;;10.15;4.18;;;;;;;;;;10570759;28;20043;-71
2021/09/21 02:15:20;;;;;;;9.90;4.60;;;;;;;;;;10571018;28;20138;-72
2021/09/21 02:20:23;;;;;;;10.98;4.72;;;;;;;;;;10570420;28;20112;-71
2021/09/21 02:25:27;;;;;;;10.48;4.40;;;;;;;;;;10567424;28;20465;-72
2021/09/21 02:30:30;;;;;;;12.57;5.22;;;;;;;;;;10573962;28;20529;-71
2021/09/21 02:35:33;;;;;;;12.50;4.72;;;;;;;;;;10568003;28;20442;-70
2021/09/21 02:40:37;;;;;;;13.57;4.82;;;;;;;;;;10573110;28;20027;-71
2021/09/21 02:45:40;;;;;;;13.55;5.18;;;;;;;;;;10569240;28;20121;-71
2021/09/21 02:50:43;;;;;;;11.70;5.20;;;;;;;;;;10572166;28;20119;-70
2021/09/21 02:55:47;;;;;;;12.60;4.70;;;;;;;;;;10571768;28;20066;-70
2021/09/21 03:00:53;;;;;;;13.73;5.38;;;;;;;;;;10566771;28;20113;-70
2021/09/21 03:05:59;;;;;;;15.43;5.80;;;;;;;;;;10569060;28;20377;-70
2021/09/21 03:11:13;;;;;;;14.60;5.57;;;;;;;;;;10561921;28;20135;-69
2021/09/21 03:21:36;;;;;;;15.75;6.57;;;;;;;;;;10567496;28;20122;-72
2021/09/21 03:26:40;;;;;;;13.27;5.33;;;;;;;;;;10567968;28;20147;-71
2021/09/21 03:31:43;;;;;;;15.10;6.45;;;;;;;;;;10568873;28;20097;-70
2021/09/21 03:36:45;;;;;;;14.27;5.82;;;;;;;;;;10571507;27;20155;-71
2021/09/21 03:41:50;;;;;;;15.13;6.10;;;;;;;;;;10570836;28;20071;-71
2021/09/21 03:46:53;;;;;;;14.65;5.93;;;;;;;;;;10565989;28;20156;-72
2021/09/21 03:51:56;;;;;;;18.57;7.10;;;;;;;;;;10565031;28;20079;-71
2021/09/21 03:57:01;;;;;;;17.13;6.78;;;;;;;;;;10569067;28;20112;-71
2021/09/21 04:02:05;;;;;;;17.52;5.82;;;;;;;;;;10568081;28;20050;-70
2021/09/21 04:07:07;;;;;;;;;;;;;;;;;;10568171;28;20091;-72
2021/09/21 04:12:12;;;;;;;15.65;6.03;;;;;;;;;;10565615;28;20010;-71
2021/09/21 04:17:14;;;;;;;14.77;6.47;;;;;;;;;;10567678;28;20101;-71
2021/09/21 04:22:17;;;;;;;14.20;5.90;;;;;;;;;;10562680;28;20058;-71
2021/09/21 04:27:21;;;;;;;16.52;6.60;;;;;;;;;;10567073;28;20546;-71
2021/09/21 04:32:24;;;;;;;16.27;6.63;;;;;;;;;;10567046;28;20035;-71
2021/09/21 04:37:27;;;;;;;13.18;6.25;;;;;;;;;;10563072;28;20150;-70
2021/09/21 04:42:31;;;;;;;18.00;6.32;;;;;;;;;;10567099;28;20480;-72
2021/09/21 04:47:35;;;;;;;17.80;6.78;;;;;;;;;;10563572;28;20394;-70
2021/09/21 04:52:38;;;;;;;17.77;6.83;;;;;;;;;;10565896;28;20039;-70
2021/09/21 04:57:43;;;;;;;22.10;8.43;;;;;;;;;;10560496;28;20063;-71
2021/09/21 05:02:45;;;;;;;17.77;6.70;;;;;;;;;;10565505;28;20052;-71
2021/09/21 05:07:49;;;;;;;17.30;6.63;;;;;;;;;;10560603;28;20394;-72
2021/09/21 05:12:53;;;;;;;20.33;7.23;;;;;;;;;;10563853;28;20039;-71
2021/09/21 05:17:56;;;;;;;16.40;6.72;;;;;;;;;;10564993;28;20067;-71
2021/09/21 05:23:01;;;;;;;16.20;6.47;;;;;;;;;;10566210;28;20050;-71
2021/09/21 05:28:05;;;;;;;15.93;6.10;;;;;;;;;;10564069;28;20057;-71
2021/09/21 05:33:08;;;;;;;14.40;6.00;;;;;;;;;;10574098;28;20075;-72
2021/09/21 05:38:11;;;;;;;13.05;5.43;;;;;;;;;;10583989;28;20487;-71
2021/09/21 05:43:15;;;;;;;15.47;6.20;;;;;;;;;;10566873;28;20054;-71
2021/09/21 05:48:18;;;;;;;18.58;7.65;;;;;;;;;;10553121;28;20043;-71
2021/09/21 05:53:21;;;;;;;16.58;6.65;;;;;;;;;;10550299;28;20092;-73
2021/09/21 05:58:25;;;;;;;19.00;7.07;;;;;;;;;;10557829;28;20031;-72
2021/09/21 06:03:30;;;;;;;14.43;5.72;;;;;;;;;;10561064;28;20044;-71
2021/09/21 06:08:33;;;;;;;19.15;6.32;;;;;;;;;;10565266;28;20040;-70
2021/09/21 06:13:37;;;;;;;15.47;6.83;;;;;;;;;;10554163;28;20039;-70
2021/09/21 06:18:40;;;;;;;19.20;6.55;;;;;;;;;;10565345;27;20042;-71
2021/09/21 06:23:43;;;;;;;13.45;6.90;;;;;;;;;;10566105;28;20063;-70
2021/09/21 06:28:47;;;;;;;20.08;6.75;;;;;;;;;;10568801;28;20063;-71
2021/09/21 06:33:50;;;;;;;15.88;6.85;;;;;;;;;;10557766;28;20126;-71
2021/09/21 06:38:53;;;;;;;15.40;7.38;;;;;;;;;;10556530;28;20039;-71
2021/09/21 06:43:57;;;;;;;16.33;7.05;;;;;;;;;;10568006;28;20047;-73
2021/09/21 06:49:00;;;;;;;17.45;7.50;;;;;;;;;;10559879;28;20122;-69
2021/09/21 06:54:03;;;;;;;19.13;8.07;;;;;;;;;;10567769;28;20046;-71
2021/09/21 06:59:07;;;;;;;17.30;7.63;;;;;;;;;;10567401;28;20479;-71
2021/09/21 07:04:10;;;;;;;17.02;7.95;;;;;;;;;;10563414;28;20043;-71
2021/09/21 07:09:13;;;;;;;20.77;7.87;;;;;;;;;;10565834;27;20139;-71
2021/09/21 07:14:18;;;;;;;18.02;8.18;;;;;;;;;;10562063;28;20058;-69
2021/09/21 07:19:20;;;;;;;17.75;8.15;;;;;;;;;;10561028;28;20583;-72
2021/09/21 07:24:23;;;;;;;16.30;7.50;;;;;;;;;;10568649;27;20367;-72
2021/09/21 07:29:27;;;;;;;15.10;7.20;;;;;;;;;;10573801;27;20059;-72
2021/09/21 07:34:30;;;;;;;16.88;7.55;;;;;;;;;;10566452;28;20118;-71
2021/09/21 07:39:33;;;;;;;16.37;7.87;;;;;;;;;;10563783;28;20437;-72
2021/09/21 07:44:37;;;;;;;17.27;7.40;;;;;;;;;;10565576;28;20302;-71
2021/09/21 07:49:40;;;;;;;18.25;8.30;;;;;;;;;;10567636;28;20040;-71
2021/09/21 07:54:43;;;;;;;15.98;7.57;;;;;;;;;;10565673;28;20046;-71
2021/09/21 07:59:48;;;;;;;15.17;7.77;;;;;;;;;;10561917;28;20028;-72
2021/09/21 08:04:50;;;;;;;14.85;7.43;;;;;;;;;;10562519;28;20134;-71
2021/09/21 08:09:53;;;;;;;19.23;8.47;;;;;;;;;;10565609;28;20059;-71
2021/09/21 08:14:58;;;;;;;17.40;8.67;;;;;;;;;;10559927;28;20089;-71
2021/09/21 08:20:01;;;;;;;20.83;9.00;;;;;;;;;;10564912;28;20110;-71
2021/09/21 08:25:04;;;;;;;17.93;8.20;;;;;;;;;;10560994;28;20051;-71
2021/09/21 08:30:09;;;;;;;14.52;7.32;;;;;;;;;;10561018;28;20051;-70
2021/09/21 08:35:12;;;;;;;14.50;6.93;;;;;;;;;;10565893;28;20176;-72
2021/09/21 08:40:14;;;;;;;15.73;7.33;;;;;;;;;;10566833;28;20043;-70
2021/09/21 08:45:19;;;;;;;13.67;6.53;;;;;;;;;;10562077;28;20075;-71
2021/09/21 08:50:23;;;;;;;21.08;7.78;;;;;;;;;;10562529;28;20063;-70
2021/09/21 08:55:26;;;;;;;12.55;5.95;;;;;;;;;;10565135;28;20063;-70
2021/09/21 09:00:32;;;;;;;13.10;5.90;;;;;;;;;;10558324;28;20032;-70
2021/09/21 09:05:42;;;;;;;13.38;7.47;;;;;;;;;;10560722;28;20048;-71
2021/09/21 09:10:45;;;;;;;12.65;5.35;;;;;;;;;;10560252;28;20035;-70
2021/09/21 09:15:56;;;;;;;11.47;5.73;;;;;;;;;;10556489;28;20078;-71
2021/09/21 09:20:59;;;;;;;11.05;5.65;;;;;;;;;;10559138;28;20036;-71
2021/09/21 09:26:02;;;;;;;12.98;5.88;;;;;;;;;;10558200;28;20047;-71
2021/09/21 09:31:06;;;;;;;13.38;5.93;;;;;;;;;;10561025;28;20358;-70
2021/09/21 09:36:09;;;;;;;12.60;6.35;;;;;;;;;;10560048;28;20464;-70
2021/09/21 09:41:14;;;;;;;11.60;5.45;;;;;;;;;;10563835;28;20054;-70
2021/09/21 09:46:19;;;;;;;13.13;6.53;;;;;;;;;;10561079;28;20617;-70
2021/09/21 09:51:21;;;;;;;13.25;5.43;;;;;;;;;;10562265;28;20039;-70
2021/09/21 09:56:24;;;;;;;14.38;6.63;;;;;;;;;;10567273;28;20048;-71
2021/09/21 10:01:29;;;;;;;10.55;5.95;;;;;;;;;;10560169;28;20078;-70
2021/09/21 10:06:37;;;;;;;12.55;6.32;;;;;;;;;;10557092;28;20407;-70
2021/09/21 10:11:40;;;;;;;12.05;6.45;;;;;;;;;;10560455;28;20070;-70
2021/09/21 10:16:50;;;;;;;10.48;6.20;;;;;;;;;;10562601;28;20044;-69
2021/09/21 10:21:54;;;;;;;15.43;6.72;;;;;;;;;;10567981;28;20138;-71
2021/09/21 10:27:01;;;;;;;13.00;7.15;;;;;;;;;;10563884;28;20055;-71
2021/09/21 10:32:11;;;;;;;9.93;6.13;;;;;;;;;;10566002;28;20135;-70
2021/09/21 10:37:16;;;;;;;13.57;6.38;;;;;;;;;;10557729;28;20131;-71
2021/09/21 10:42:22;;;;;;;13.35;6.93;;;;;;;;;;10565800;28;20058;-71
2021/09/21 10:47:28;;;;;;;14.18;6.40;;;;;;;;;;10564821;27;20568;-72
2021/09/21 10:52:30;;;;;;;10.65;6.47;;;;;;;;;;10567640;28;20112;-71
2021/09/21 10:57:35;;;;;;;10.57;6.28;;;;;;;;;;10555849;28;20146;-69
2021/09/21 11:02:40;;;;;;;11.73;6.20;;;;;;;;;;10571961;28;20039;-72
2021/09/21 11:07:49;;;;;;;10.55;6.43;;;;;;;;;;10558269;28;20087;-71
2021/09/21 11:12:53;;;;;;;11.45;6.78;;;;;;;;;;10569030;28;20046;-72
2021/09/21 11:18:03;;;;;;;10.50;6.40;;;;;;;;;;10559903;28;20409;-71
2021/09/21 11:23:06;;;;;;;10.07;6.63;;;;;;;;;;10561169;28;20061;-72
2021/09/21 11:28:08;;;;;;;12.45;7.15;;;;;;;;;;10562068;28;20099;-70
2021/09/21 11:33:14;;;;;;;11.57;6.80;;;;;;;;;;10565002;28;20074;-69
2021/09/21 11:38:18;;;;;;;10.43;6.38;;;;;;;;;;10566157;28;20503;-71
2021/09/21 11:43:21;;;;;;;12.05;6.88;;;;;;;;;;10563883;28;20114;-72
2021/09/21 11:48:25;;;;;;;13.02;7.38;;;;;;;;;;10561399;28;20463;-71
2021/09/21 11:53:29;;;;;;;11.45;6.50;;;;;;;;;;10553263;28;20638;-71
2021/09/21 11:58:33;;;;;;;13.85;7.07;;;;;;;;;;10562306;28;20502;-71
2021/09/21 12:03:37;;;;;;;13.07;6.82;;;;;;;;;;10565449;28;20039;-70
2021/09/21 12:08:42;;;;;;;10.80;6.50;;;;;;;;;;10565793;28;20042;-70
2021/09/21 12:13:48;;;;;;;9.98;5.60;;;;;;;;;;10555734;28;20043;-70
2021/09/21 12:18:52;;;;;;;11.13;6.40;;;;;;;;;;10559741;28;20669;-70
2021/09/21 12:23:55;;;;;;;10.63;6.65;;;;;;;;;;10556423;28;20047;-69
2021/09/21 12:28:58;;;;;;;11.50;6.55;;;;;;;;;;10563436;28;20039;-69
2021/09/21 12:34:09;;;;;;;10.27;5.93;;;;;;;;;;10564413;28;20977;-68
2021/09/21 12:39:13;;;;;;;17.00;6.35;;;;;;;;;;10565077;28;20404;-69
2021/09/21 12:44:17;;;;;;;13.07;6.30;;;;;;;;;;10562988;28;20508;-70
2021/09/21 12:49:22;;;;;;;9.70;5.18;;;;;;;;;;10559072;28;20054;-70
2021/09/21 12:54:25;;;;;;;10.25;5.70;;;;;;;;;;10553868;28;20104;-70
2021/09/21 12:59:29;;;;;;;9.93;5.90;;;;;;;;;;10562032;28;20425;-69
2021/09/21 13:04:35;;;;;;;12.20;5.72;;;;;;;;;;10557620;28;20459;-70
2021/09/21 13:09:38;;;;;;;12.32;6.47;;;;;;;;;;10554988;28;20100;-69
2021/09/21 13:14:42;;;;;;;11.80;5.93;;;;;;;;;;10551260;28;20346;-69
2021/09/21 13:19:46;;;;;;;13.35;6.03;;;;;;;;;;10549986;28;20555;-69
2021/09/21 13:24:49;;;;;;;9.98;5.60;;;;;;;;;;10556948;28;20067;-69
2021/09/21 13:29:51;;;;;;;10.02;5.95;;;;;;;;;;10561591;28;20035;-69
2021/09/21 13:34:56;;;;;;;10.27;5.97;;;;;;;;;;10559257;28;20188;-69
2021/09/21 13:39:58;;;;;;;10.23;6.18;;;;;;;;;;10553462;28;20114;-71
2021/09/21 13:45:01;;;;;;;11.68;5.93;;;;;;;;;;10554069;28;20138;-67
2021/09/21 13:50:06;;;;;;;10.43;5.65;;;;;;;;;;10560302;28;20096;-70
2021/09/21 13:55:10;;;;;;;9.57;5.60;;;;;;;;;;10548894;28;20122;-70
2021/09/21 14:00:14;;;;;;;9.50;5.70;;;;;;;;;;10555119;28;20345;-71
2021/09/21 14:05:19;;;;;;;12.23;6.40;;;;;;;;;;10560290;28;20086;-70
2021/09/21 14:10:21;;;;;;;11.43;6.10;;;;;;;;;;10564057;28;20479;-69
2021/09/21 14:15:24;;;;;;;;;;;;;;;;;;10552606;28;20043;-70
2021/09/21 14:20:28;;;;;;;11.32;5.75;;;;;;;;;;10560693;28;20023;-69
2021/09/21 14:25:31;;;;;;;13.02;6.50;;;;;;;;;;10556087;28;20092;-70
2021/09/21 14:30:34;;;;;;;15.65;7.03;;;;;;;;;;10555016;28;20044;-69
2021/09/21 14:35:38;;;;;;;12.65;6.82;;;;;;;;;;10556532;28;20384;-70
2021/09/21 14:40:41;;;;;;;13.57;6.82;;;;;;;;;;10559359;28;20093;-70
2021/09/21 14:45:44;;;;;;;11.90;6.95;;;;;;;;;;10561594;28;20493;-70
2021/09/21 14:50:48;;;;;;;18.00;10.25;;;;;;;;;;10552507;28;20501;-69
2021/09/21 14:55:51;;;;;;;15.00;6.85;;;;;;;;;;10560052;28;20487;-69
2021/09/21 15:00:54;;;;;;;12.25;6.63;;;;;;;;;;10564155;28;20364;-67
2021/09/21 15:05:59;;;;;;;13.45;6.00;;;;;;;;;;10567925;28;20129;-70
2021/09/21 15:11:01;;;;;;;12.23;6.47;;;;;;;;;;10567947;28;20051;-70
2021/09/21 15:16:04;;;;;;;14.70;6.90;;;;;;;;;;10559313;28;20092;-68
2021/09/21 15:21:07;;;;;;;;;;;;;;;;;;10576755;27;20118;-70
2021/09/21 15:26:12;;;;;;;12.40;5.87;;;;;;;;;;10568424;27;19932;-70
2021/09/21 15:31:15;;;;;;;13.85;6.93;;;;;;;;;;10563843;27;20488;-70
2021/09/21 15:36:18;;;;;;;13.95;6.70;;;;;;;;;;10559818;28;20487;-71
2021/09/21 15:41:22;;;;;;;21.17;11.93;;;;;;;;;;10563758;28;20071;-69
2021/09/21 15:46:25;;;;;;;12.93;6.90;;;;;;;;;;10555537;28;20112;-72
2021/09/21 15:51:29;;;;;;;15.10;7.43;;;;;;;;;;10550329;28;20077;-71
2021/09/21 15:56:33;;;;;;;11.63;5.95;;;;;;;;;;10550918;28;20040;-71
2021/09/21 16:01:36;;;;;;;11.30;5.88;;;;;;;;;;10567188;28;20155;-70
2021/09/21 16:06:39;;;;;;;13.77;6.20;;;;;;;;;;10566654;28;20557;-71
2021/09/21 16:11:43;;;;;;;13.50;6.32;;;;;;;;;;10565816;28;20036;-70
2021/09/21 16:16:47;;;;;;;13.85;6.45;;;;;;;;;;10563084;28;20465;-71
2021/09/21 16:21:51;;;;;;;13.60;6.65;;;;;;;;;;10562371;28;20063;-72
2021/09/21 16:26:56;;;;;;;13.82;6.60;;;;;;;;;;10564263;28;20048;-70
2021/09/21 16:31:59;;;;;;;11.45;5.85;;;;;;;;;;10565055;28;20071;-70
2021/09/21 16:37:02;;;;;;;13.73;6.47;;;;;;;;;;10561391;28;20062;-70
2021/09/21 16:42:07;;;;;;;17.47;8.87;;;;;;;;;;10562550;28;20487;-72
2021/09/21 16:47:10;;;;;;;11.95;5.70;;;;;;;;;;10562816;28;20062;-70
2021/09/21 16:52:12;;;;;;;15.70;6.20;;;;;;;;;;10562287;28;20119;-71
2021/09/21 16:57:17;;;;;;;15.25;7.25;;;;;;;;;;10564161;28;20039;-72
2021/09/21 17:02:26;;;;;;;14.65;6.82;;;;;;;;;;10566701;27;20128;-70
2021/09/21 17:07:30;;;;;;;13.38;6.25;;;;;;;;;;10568260;27;20047;-71
2021/09/21 17:12:36;;;;;;;11.53;5.60;;;;;;;;;;10566587;27;20057;-70
2021/09/21 17:17:43;;;;;;;16.13;6.20;;;;;;;;;;10564312;28;20044;-70
2021/09/21 17:22:47;;;;;;;14.82;5.72;;;;;;;;;;10559636;28;20036;-71
2021/09/21 17:27:51;;;;;;;11.40;5.90;;;;;;;;;;10559998;28;20043;-69
2021/09/21 17:32:54;;;;;;;12.07;5.60;;;;;;;;;;10564035;28;20039;-69
2021/09/21 17:37:57;;;;;;;17.63;6.82;;;;;;;;;;10560360;28;20443;-70
2021/09/21 17:43:02;;;;;;;17.17;6.25;;;;;;;;;;10565650;28;20112;-70
2021/09/21 17:48:08;;;;;;;21.17;9.45;;;;;;;;;;10565106;28;20043;-69
2021/09/21 17:53:11;;;;;;;15.82;6.28;;;;;;;;;;10561616;28;20043;-71
2021/09/21 17:58:15;;;;;;;20.00;9.43;;;;;;;;;;10564605;28;20434;-72
2021/09/21 18:03:18;;;;;;;12.65;5.80;;;;;;;;;;10536243;28;20542;-69
2021/09/21 18:08:21;;;;;;;17.97;6.97;;;;;;;;;;10555974;28;20082;-69
2021/09/21 18:13:26;;;;;;;14.43;6.27;;;;;;;;;;10565391;28;20069;-71
2021/09/21 18:19:06;;;;;;;15.45;7.07;;;;;;;;;;10569127;28;20499;-69
2021/09/21 18:24:10;;;;;;;14.77;6.35;;;;;;;;;;10561447;28;20117;-70
2021/09/21 18:29:15;;;;;;;23.80;8.52;;;;;;;;;;10572942;28;20051;-71
2021/09/21 18:34:18;;;;;;;16.38;7.65;;;;;;;;;;10564685;28;20475;-70
2021/09/21 18:39:20;;;;;;;13.50;6.25;;;;;;;;;;10570724;28;20126;-70
2021/09/21 18:44:25;;;;;;;13.77;6.50;;;;;;;;;;10570797;28;20039;-69
2021/09/21 18:49:27;;;;;;;14.52;6.57;;;;;;;;;;10568658;28;20039;-70
2021/09/21 18:54:30;;;;;;;19.50;8.95;;;;;;;;;;10570859;28;20074;-71
2021/09/21 18:59:35;;;;;;;15.43;6.95;;;;;;;;;;10566920;28;20039;-70
2021/09/21 19:04:37;;;;;;;13.77;6.47;;;;;;;;;;10563859;28;20089;-70
2021/09/21 19:09:40;;;;;;;15.65;6.43;;;;;;;;;;10568297;28;20175;-69
2021/09/21 19:14:45;;;;;;;15.17;6.83;;;;;;;;;;10567883;28;20087;-69
2021/09/21 19:19:48;;;;;;;18.55;6.38;;;;;;;;;;10560420;28;20153;-71
2021/09/21 19:24:51;;;;;;;14.23;6.15;;;;;;;;;;10556521;28;20134;-70
2021/09/21 19:29:55;;;;;;;15.82;7.00;;;;;;;;;;10569304;28;20032;-72
2021/09/21 19:34:58;;;;;;;15.25;6.47;;;;;;;;;;10556798;28;20093;-71
2021/09/21 19:40:01;;;;;;;15.30;6.43;;;;;;;;;;10566973;28;20078;-68
2021/09/21 19:45:06;;;;;;;17.47;6.10;;;;;;;;;;10564562;28;20503;-72
2021/09/21 19:50:09;;;;;;;16.38;6.03;;;;;;;;;;10567583;28;20151;-71
2021/09/21 19:55:12;;;;;;;11.38;5.95;;;;;;;;;;10563825;28;20384;-73
2021/09/21 20:00:17;;;;;;;17.60;6.30;;;;;;;;;;10567722;28;20108;-73
2021/09/21 20:05:20;;;;;;;14.65;6.72;;;;;;;;;;10567488;28;20108;-71
2021/09/21 20:10:23;;;;;;;21.92;9.98;;;;;;;;;;10565470;28;20040;-72
2021/09/21 20:15:27;;;;;;;20.48;8.18;;;;;;;;;;10568040;28;20040;-73
2021/09/21 20:20:30;;;;;;;17.15;7.88;;;;;;;;;;10568766;28;20051;-72
2021/09/21 20:25:33;;;;;;;15.63;7.50;;;;;;;;;;10566800;28;20460;-73
2021/09/21 20:30:37;;;;;;;14.23;6.57;;;;;;;;;;10568109;28;20556;-73
2021/09/21 20:35:48;;;;;;;16.92;7.40;;;;;;;;;;10565267;28;20518;-73
2021/09/21 20:40:53;;;;;;;17.75;7.13;;;;;;;;;;10561137;28;20409;-71
2021/09/21 20:46:00;;;;;;;14.52;6.72;;;;;;;;;;10562414;28;20100;-71
2021/09/21 20:51:04;;;;;;;13.50;6.50;;;;;;;;;;10563255;28;20084;-71
2021/09/21 20:56:06;;;;;;;;;;;;;;;;;;10569479;28;20044;-70
2021/09/21 21:01:10;;;;;;;12.75;5.80;;;;;;;;;;10558933;28;20102;-70
2021/09/21 21:06:13;;;;;;;12.45;5.80;;;;;;;;;;10560282;28;20047;-70
2021/09/21 21:11:16;;;;;;;14.90;6.10;;;;;;;;;;10563677;28;20421;-71
2021/09/21 21:16:21;;;;;;;12.93;6.15;;;;;;;;;;10562543;28;20108;-71
2021/09/21 21:21:24;;;;;;;13.07;5.75;;;;;;;;;;10565954;28;20036;-71
2021/09/21 21:26:27;;;;;;;15.55;5.95;;;;;;;;;;10565821;28;20108;-70
2021/09/21 21:31:31;;;;;;;15.82;6.72;;;;;;;;;;10563240;28;20043;-71
2021/09/21 21:36:34;;;;;;;15.77;6.90;;;;;;;;;;10565150;28;20044;-71
2021/09/21 21:41:37;;;;;;;15.25;6.38;;;;;;;;;;10566783;28;20063;-70
2021/09/21 21:46:41;;;;;;;16.08;6.93;;;;;;;;;;10561721;28;20076;-71
2021/09/21 21:51:45;;;;;;;15.85;6.35;;;;;;;;;;10566241;28;20051;-72
2021/09/21 21:56:47;;;;;;;15.27;7.07;;;;;;;;;;10575067;28;20115;-71
2021/09/21 22:01:51;;;;;;;15.25;6.32;;;;;;;;;;10570620;28;20525;-71
2021/09/21 22:06:54;;;;;;;16.45;6.32;;;;;;;;;;10570903;28;20043;-72
2021/09/21 22:11:57;;;;;;;16.67;6.85;;;;;;;;;;10571054;28;20061;-72
2021/09/21 22:17:02;;;;;;;16.45;6.35;;;;;;;;;;10567142;28;20104;-70
2021/09/21 22:22:25;;;;;;;;;;;;;;;;;;10572436;28;20070;-70
2021/09/21 22:27:27;;;;;;;14.80;6.05;;;;;;;;;;10572234;28;19981;-69
2021/09/21 22:32:34;;;;;;;17.17;7.10;;;;;;;;;;10570729;28;20046;-70
2021/09/21 22:37:36;;;;;;;17.02;7.40;;;;;;;;;;10569924;28;20134;-70
2021/09/21 22:42:42;;;;;;;19.38;7.20;;;;;;;;;;10564070;27;20085;-69
2021/09/21 22:47:47;;;;;;;18.63;7.95;;;;;;;;;;10566829;28;20040;-70
2021/09/21 22:52:50;;;;;;;20.17;7.50;;;;;;;;;;10570426;28;20032;-71
2021/09/21 22:57:52;;;;;;;19.10;8.13;;;;;;;;;;10573400;28;20055;-71
2021/09/21 23:02:57;;;;;;;20.13;8.02;;;;;;;;;;10568909;28;20055;-72
2021/09/21 23:08:00;;;;;;;18.67;7.93;;;;;;;;;;10570365;28;20501;-72
2021/09/21 23:13:03;;;;;;;18.48;7.68;;;;;;;;;;10567826;28;20075;-73
2021/09/21 23:18:08;;;;;;;18.08;7.65;;;;;;;;;;10572138;28;20326;-72
2021/09/21 23:23:14;;;;;;;20.92;8.00;;;;;;;;;;10567226;28;20098;-71
2021/09/21 23:28:16;;;;;;;17.85;7.60;;;;;;;;;;10569343;28;20122;-71
2021/09/21 23:33:21;;;;;;;18.27;7.53;;;;;;;;;;10570170;28;20047;-71
2021/09/21 23:38:24;;;;;;;19.63;7.75;;;;;;;;;;10564620;28;20208;-71
2021/09/21 23:43:26;;;;;;;19.17;7.43;;;;;;;;;;10569101;28;20093;-71
2021/09/21 23:48:31;;;;;;;21.33;8.63;;;;;;;;;;10568449;28;20142;-71
2021/09/21 23:53:33;;;;;;;19.15;7.75;;;;;;;;;;10564472;28;20184;-71
2021/09/21 23:58:36;;;;;;;23.52;8.95;;;;;;;;;;10569445;28;20067;-71
